Time;durP1;ratioP1;P1;durP2;ratioP2;P2;SDS_P1;SDS_P2;PMS_P1;PMS_P2;Temp;Humidity;BMP_temperature;BMP_pressure;BME280_temperature;BME280_humidity;BME280_pressure;Samples;Min_cycle;Max_cycle;Signal;HPM_P1;HPM_P2
2022/02/17 00:01:43;;;;;;;5.20;5.00;;;13.10;99.90;;;;;;4991929;28;20276;-69
2022/02/17 00:04:09;;;;;;;6.47;6.17;;;13.10;99.90;;;;;;4991766;28;20284;-68
2022/02/17 00:06:35;;;;;;;5.77;5.43;;;13.00;99.90;;;;;;4993493;28;20721;-67
2022/02/17 00:09:00;;;;;;;5.87;5.53;;;12.90;99.90;;;;;;4991687;28;20215;-69
2022/02/17 00:11:26;;;;;;;6.33;6.03;;;12.80;99.90;;;;;;4992288;28;20180;-69
2022/02/17 00:13:51;;;;;;;5.90;5.50;;;12.70;99.90;;;;;;4991904;28;20530;-68
2022/02/17 00:16:17;;;;;;;5.80;5.40;;;12.70;99.90;;;;;;4992014;28;20236;-67
2022/02/17 00:18:43;;;;;;;6.00;5.70;;;12.80;99.90;;;;;;4992020;28;20794;-69
2022/02/17 00:21:08;;;;;;;15.33;14.67;;;12.80;99.90;;;;;;4992017;28;20184;-68
2022/02/17 00:23:34;;;;;;;6.20;5.80;;;12.90;99.90;;;;;;4991363;28;20181;-69
2022/02/17 00:26:00;;;;;;;5.97;5.70;;;12.90;99.90;;;;;;4992002;28;20177;-69
2022/02/17 00:28:25;;;;;;;5.83;5.53;;;12.90;99.90;;;;;;4991525;28;20309;-67
2022/02/17 00:30:51;;;;;;;6.00;5.70;;;12.90;99.90;;;;;;4991782;28;20215;-69
2022/02/17 00:33:17;;;;;;;5.80;5.50;;;12.90;99.90;;;;;;4990877;28;20169;-67
2022/02/17 00:35:43;;;;;;;6.07;5.60;;;12.90;99.90;;;;;;4991691;28;20185;-67
2022/02/17 00:38:09;;;;;;;7.37;6.97;;;13.00;99.90;;;;;;4991616;28;20279;-69
2022/02/17 00:40:35;;;;;;;5.23;5.03;;;13.10;99.90;;;;;;4993973;28;20670;-68
2022/02/17 00:43:00;;;;;;;7.10;6.80;;;13.00;99.90;;;;;;4993613;28;20211;-69
2022/02/17 00:45:26;;;;;;;6.30;6.00;;;12.90;99.90;;;;;;4995103;28;20231;-67
2022/02/17 00:47:51;;;;;;;6.40;6.10;;;12.90;99.90;;;;;;4995157;28;20570;-68
2022/02/17 00:50:17;;;;;;;5.30;5.10;;;13.00;99.90;;;;;;4995488;28;20205;-68
2022/02/17 00:52:43;;;;;;;6.03;5.63;;;13.00;99.90;;;;;;4993772;28;20594;-68
2022/02/17 00:55:09;;;;;;;8.77;8.33;;;13.10;99.90;;;;;;4995173;28;20185;-68
2022/02/17 00:57:34;;;;;;;6.20;5.90;;;13.10;99.90;;;;;;4994930;28;20562;-68
2022/02/17 01:00:00;;;;;;;6.57;6.00;;;13.20;99.90;;;;;;4983350;28;20184;-67
2022/02/17 01:02:26;;;;;;;5.87;5.57;;;13.20;99.90;;;;;;4994484;28;20181;-66
2022/02/17 01:04:52;;;;;;;6.47;6.17;;;13.10;99.90;;;;;;4995246;28;20535;-69
2022/02/17 01:07:18;;;;;;;7.60;7.30;;;13.10;99.90;;;;;;4994797;28;20212;-69
2022/02/17 01:09:43;;;;;;;7.03;6.50;;;13.00;99.90;;;;;;4994675;28;20274;-68
2022/02/17 01:12:09;;;;;;;6.13;5.73;;;13.00;99.90;;;;;;4994876;28;20260;-68
2022/02/17 01:14:35;;;;;;;5.77;5.47;;;13.00;99.90;;;;;;4994346;28;20188;-68
2022/02/17 01:17:01;;;;;;;5.73;5.37;;;13.00;99.90;;;;;;4994630;28;20177;-67
2022/02/17 01:19:26;;;;;;;9.07;8.67;;;13.00;99.90;;;;;;4994143;28;20220;-68
2022/02/17 01:21:52;;;;;;;5.73;5.50;;;13.00;99.90;;;;;;4994477;28;20196;-68
2022/02/17 01:24:18;;;;;;;5.97;5.67;;;13.00;99.90;;;;;;4994046;28;20666;-69
2022/02/17 01:26:44;;;;;;;6.80;6.47;;;13.00;99.90;;;;;;4995251;28;20185;-69
2022/02/17 01:29:10;;;;;;;7.33;6.93;;;13.00;99.90;;;;;;4995215;28;20263;-67
2022/02/17 01:31:35;;;;;;;7.60;6.47;;;13.00;99.90;;;;;;4994664;28;20177;-69
2022/02/17 01:34:02;;;;;;;6.43;5.90;;;12.90;99.90;;;;;;4994168;28;20185;-67
2022/02/17 01:36:27;;;;;;;6.53;6.07;;;12.90;99.90;;;;;;4994301;28;20188;-68
2022/02/17 01:38:53;;;;;;;7.10;6.60;;;12.80;99.90;;;;;;4994355;28;20227;-70
2022/02/17 01:41:19;;;;;;;7.50;5.97;;;12.90;99.90;;;;;;4994223;28;20188;-70
2022/02/17 01:43:48;;;;;;;6.70;6.30;;;13.00;99.90;;;;;;4993781;28;20185;-69
2022/02/17 01:46:13;;;;;;;6.63;6.13;;;13.00;99.90;;;;;;4994133;28;20184;-68
2022/02/17 01:48:39;;;;;;;8.90;6.57;;;13.00;99.90;;;;;;4994086;28;20224;-70
2022/02/17 01:51:05;;;;;;;8.73;7.27;;;12.80;99.90;;;;;;4993879;28;20555;-70
2022/02/17 01:53:32;;;;;;;6.03;5.53;;;12.50;99.90;;;;;;4993568;28;20216;-69
2022/02/17 01:55:59;;;;;;;8.07;6.60;;;12.30;99.90;;;;;;4994267;28;20181;-68
2022/02/17 01:58:27;;;;;;;6.47;5.53;;;12.30;99.90;;;;;;4992773;28;20200;-68
2022/02/17 02:00:53;;;;;;;7.33;6.47;;;12.30;99.90;;;;;;4993925;28;20200;-68
2022/02/17 02:03:19;;;;;;;6.87;6.27;;;12.40;99.90;;;;;;4993428;28;20253;-68
2022/02/17 02:05:45;;;;;;;7.83;6.77;;;12.50;99.90;;;;;;4993835;28;20177;-67
2022/02/17 02:08:11;;;;;;;7.37;6.40;;;12.50;99.90;;;;;;4993440;28;20216;-66
2022/02/17 02:10:37;;;;;;;6.90;6.20;;;12.50;99.90;;;;;;4993600;28;20355;-67
2022/02/17 02:13:03;;;;;;;8.17;6.40;;;12.60;99.90;;;;;;4993164;28;20627;-67
2022/02/17 02:15:51;;;;;;;9.27;7.30;;;12.60;99.90;;;;;;4992620;28;20173;-67
2022/02/17 02:18:18;;;;;;;8.60;7.00;;;12.60;99.90;;;;;;4993643;28;20204;-67
2022/02/17 02:20:46;;;;;;;7.00;6.30;;;12.60;99.90;;;;;;4993470;28;20189;-67
2022/02/17 02:23:12;;;;;;;6.73;6.17;;;12.60;99.90;;;;;;4993089;28;20177;-68
2022/02/17 02:25:39;;;;;;;7.30;6.00;;;12.50;99.90;;;;;;4993056;28;20200;-68
2022/02/17 02:28:05;;;;;;;9.43;6.40;;;12.40;99.90;;;;;;4993002;28;20262;-67
2022/02/17 02:30:30;;;;;;;8.97;6.53;;;12.30;99.90;;;;;;4993103;28;20624;-67
2022/02/17 02:32:56;;;;;;;12.03;7.07;;;12.20;99.90;;;;;;4993017;28;20188;-68
2022/02/17 02:35:22;;;;;;;11.73;6.63;;;12.20;99.90;;;;;;4992724;28;20646;-67
2022/02/17 02:37:47;;;;;;;7.67;7.07;;;12.20;99.90;;;;;;4993032;28;20197;-67
2022/02/17 02:40:13;;;;;;;7.27;6.57;;;12.20;99.90;;;;;;4991755;28;20551;-68
2022/02/17 02:42:38;;;;;;;8.17;7.07;;;12.10;99.90;;;;;;4992188;28;20604;-68
2022/02/17 02:45:04;;;;;;;8.90;6.50;;;12.00;99.90;;;;;;4992516;28;20192;-67
2022/02/17 02:47:30;;;;;;;9.63;7.50;;;12.00;99.90;;;;;;4992288;28;20259;-68
2022/02/17 02:49:55;;;;;;;8.57;7.77;;;12.00;99.90;;;;;;4991674;28;20212;-68
2022/02/17 02:52:21;;;;;;;18.23;8.13;;;11.90;99.90;;;;;;4992831;28;20185;-68
2022/02/17 02:54:47;;;;;;;10.13;7.70;;;11.90;99.90;;;;;;4993075;28;20184;-68
2022/02/17 02:57:12;;;;;;;14.93;7.93;;;11.90;99.90;;;;;;4992727;28;20254;-68
2022/02/17 02:59:41;;;;;;;11.87;8.07;;;11.90;99.90;;;;;;4992357;28;20176;-67
2022/02/17 03:02:07;;;;;;;10.07;8.03;;;12.00;99.90;;;;;;4991782;28;20188;-68
2022/02/17 03:04:32;;;;;;;12.97;8.40;;;12.00;99.90;;;;;;4992535;28;20555;-68
2022/02/17 03:06:59;;;;;;;10.93;9.10;;;12.00;99.90;;;;;;4992859;28;20181;-68
2022/02/17 03:09:25;;;;;;;12.00;7.77;;;12.00;99.90;;;;;;4992189;28;20216;-67
2022/02/17 03:11:50;;;;;;;10.73;8.20;;;12.00;99.90;;;;;;4992471;28;20177;-65
2022/02/17 03:14:16;;;;;;;12.27;7.90;;;12.00;99.90;;;;;;4992233;28;20194;-68
2022/02/17 03:16:41;;;;;;;13.77;8.50;;;11.90;99.90;;;;;;4991044;28;20718;-67
2022/02/17 03:19:07;;;;;;;9.17;8.13;;;11.90;99.90;;;;;;4992326;28;20208;-66
2022/02/17 03:21:33;;;;;;;9.50;7.67;;;11.90;99.90;;;;;;4992098;28;20280;-68
2022/02/17 03:23:58;;;;;;;10.33;7.73;;;12.00;99.90;;;;;;4991869;28;20184;-67
2022/02/17 03:26:24;;;;;;;9.30;7.70;;;11.90;99.90;;;;;;4992485;28;20196;-68
2022/02/17 03:28:50;;;;;;;17.47;7.50;;;11.80;99.90;;;;;;4992111;28;20531;-68
2022/02/17 03:31:15;;;;;;;11.33;8.13;;;11.80;99.90;;;;;;4992197;28;20193;-67
2022/02/17 03:33:41;;;;;;;11.67;7.40;;;11.70;99.90;;;;;;4991373;28;20181;-67
2022/02/17 03:36:07;;;;;;;9.27;7.47;;;11.70;99.90;;;;;;4992153;28;20184;-67
2022/02/17 03:38:32;;;;;;;17.43;8.63;;;11.70;99.90;;;;;;4990350;28;20231;-68
2022/02/17 03:40:58;;;;;;;8.57;7.60;;;11.80;99.90;;;;;;4992037;28;20554;-67
2022/02/17 03:43:23;;;;;;;11.73;7.70;;;11.70;99.90;;;;;;4991578;28;20184;-68
2022/02/17 03:45:49;;;;;;;12.80;8.17;;;11.70;99.90;;;;;;4991744;28;20177;-67
2022/02/17 03:48:15;;;;;;;9.67;7.83;;;11.70;99.90;;;;;;4991866;28;20315;-68
2022/02/17 03:50:42;;;;;;;16.37;7.80;;;11.70;99.90;;;;;;4991856;28;20216;-68
2022/02/17 03:53:08;;;;;;;15.40;7.93;;;11.70;99.90;;;;;;4991697;28;20173;-68
2022/02/17 03:55:34;;;;;;;12.57;7.43;;;11.70;99.90;;;;;;4990380;28;20529;-67
2022/02/17 03:57:59;;;;;;;11.47;8.50;;;11.60;99.90;;;;;;4991766;28;20670;-67
2022/02/17 04:00:25;;;;;;;12.90;7.53;;;11.60;99.90;;;;;;4991864;28;20695;-68
2022/02/17 04:02:52;;;;;;;10.90;7.70;;;11.60;99.90;;;;;;4991482;28;20193;-67
2022/02/17 04:05:18;;;;;;;9.57;7.83;;;11.60;99.90;;;;;;4990776;28;20180;-67
2022/02/17 04:07:43;;;;;;;10.77;7.63;;;11.60;99.90;;;;;;4992049;28;20223;-67
2022/02/17 04:10:09;;;;;;;14.07;7.80;;;11.50;99.90;;;;;;4991964;28;20208;-67
2022/02/17 04:12:35;;;;;;;8.77;7.37;;;11.50;99.90;;;;;;4991404;28;20279;-69
2022/02/17 04:15:01;;;;;;;8.70;7.90;;;11.40;99.90;;;;;;4995029;28;20172;-67
2022/02/17 04:17:26;;;;;;;15.37;8.33;;;11.40;99.90;;;;;;4995403;28;20193;-67
2022/02/17 04:19:53;;;;;;;15.80;8.53;;;11.40;99.90;;;;;;4995560;28;20250;-67
2022/02/17 04:22:18;;;;;;;14.30;7.17;;;11.40;99.90;;;;;;4995424;28;20185;-67
2022/02/17 04:24:44;;;;;;;9.97;7.23;;;11.40;99.90;;;;;;4995658;28;20177;-67
2022/02/17 04:27:10;;;;;;;9.17;7.47;;;11.40;99.90;;;;;;4995506;28;20196;-68
2022/02/17 04:29:35;;;;;;;15.93;8.40;;;11.30;99.90;;;;;;4995103;28;20215;-67
2022/02/17 04:32:02;;;;;;;10.83;7.60;;;11.30;99.90;;;;;;4995190;28;20192;-67
2022/02/17 04:34:27;;;;;;;13.97;7.70;;;11.30;99.90;;;;;;4995475;28;20181;-68
2022/02/17 04:36:53;;;;;;;21.53;8.37;;;11.20;99.90;;;;;;4995280;28;20259;-67
2022/02/17 04:39:19;;;;;;;14.37;8.37;;;11.20;99.90;;;;;;4995275;28;20196;-67
2022/02/17 04:44:28;;;;;;;14.70;8.30;;;11.10;99.90;;;;;;4995308;28;20199;-67
2022/02/17 04:46:54;;;;;;;18.07;9.13;;;11.10;99.90;;;;;;4995329;28;20189;-68
2022/02/17 04:49:19;;;;;;;16.43;7.87;;;11.10;99.90;;;;;;4993841;28;20209;-67
2022/02/17 04:51:45;;;;;;;12.60;8.00;;;11.10;99.90;;;;;;4995155;28;20188;-68
2022/02/17 04:54:11;;;;;;;12.03;8.27;;;11.00;99.90;;;;;;4994780;28;20197;-68
2022/02/17 04:56:36;;;;;;;12.10;7.33;;;11.10;99.90;;;;;;4994824;28;20185;-66
2022/02/17 04:59:02;;;;;;;12.03;7.10;;;11.10;99.90;;;;;;4995011;28;20744;-68
2022/02/17 05:01:28;;;;;;;12.13;8.37;;;11.10;99.90;;;;;;4994940;28;20638;-68
2022/02/17 05:03:53;;;;;;;17.77;8.63;;;11.10;99.90;;;;;;4994554;28;20188;-67
2022/02/17 05:06:19;;;;;;;20.70;9.07;;;11.10;99.90;;;;;;4993633;28;20231;-68
2022/02/17 05:08:44;;;;;;;14.77;7.57;;;11.10;99.90;;;;;;4994250;28;20307;-68
2022/02/17 05:11:10;;;;;;;8.33;7.53;;;11.10;99.90;;;;;;4994863;28;20176;-67
2022/02/17 05:13:36;;;;;;;17.50;8.13;;;11.10;99.90;;;;;;4994184;28;20704;-68
2022/02/17 05:16:01;;;;;;;15.20;8.30;;;10.90;99.90;;;;;;4994043;28;20183;-66
2022/02/17 05:18:27;;;;;;;14.80;9.10;;;10.60;99.90;;;;;;4994417;28;20207;-67
2022/02/17 05:20:53;;;;;;;11.60;7.43;;;10.40;99.90;;;;;;4993405;28;20180;-67
2022/02/17 05:23:18;;;;;;;16.67;9.87;;;10.50;99.90;;;;;;4994092;28;20184;-67
2022/02/17 05:25:47;;;;;;;13.70;8.00;;;10.40;99.90;;;;;;4993330;28;20936;-66
2022/02/17 05:28:15;;;;;;;15.67;7.50;;;10.10;99.90;;;;;;4994334;28;20196;-66
2022/02/17 05:30:45;;;;;;;17.77;8.13;;;9.80;99.90;;;;;;4994687;28;20627;-67
2022/02/17 05:33:12;;;;;;;16.33;8.30;;;9.80;99.90;;;;;;4975726;28;20173;-67
2022/02/17 05:35:38;;;;;;;19.83;9.57;;;9.90;99.90;;;;;;4974685;28;20186;-68
2022/02/17 05:38:04;;;;;;;17.43;9.00;;;9.90;99.90;;;;;;4993204;28;20212;-67
2022/02/17 05:40:30;;;;;;;24.20;8.93;;;9.90;99.90;;;;;;4994202;28;20275;-67
2022/02/17 05:42:57;;;;;;;19.90;8.77;;;10.00;99.90;;;;;;4993578;28;20181;-66
2022/02/17 05:45:22;;;;;;;19.17;8.73;;;10.10;99.90;;;;;;4994075;28;20177;-65
2022/02/17 05:47:48;;;;;;;19.10;8.47;;;10.10;99.90;;;;;;4993816;28;20208;-66
2022/02/17 05:50:14;;;;;;;16.13;8.70;;;10.20;99.90;;;;;;4994293;28;20236;-68
2022/02/17 05:52:40;;;;;;;13.30;9.87;;;9.90;99.90;;;;;;4993881;28;20184;-68
2022/02/17 05:55:07;;;;;;;16.13;9.07;;;9.50;99.90;;;;;;4994094;28;20268;-66
2022/02/17 05:57:33;;;;;;;26.47;9.87;;;9.30;99.90;;;;;;4993520;28;20276;-66
2022/02/17 06:00:01;;;;;;;18.67;10.10;;;9.30;99.90;;;;;;4992633;28;20216;-68
2022/02/17 06:02:27;;;;;;;20.40;8.77;;;9.20;99.90;;;;;;4993494;28;20184;-67
2022/02/17 06:04:53;;;;;;;12.33;9.97;;;9.30;99.90;;;;;;4993784;28;20534;-68
2022/02/17 06:07:19;;;;;;;20.87;9.40;;;9.30;99.90;;;;;;4994211;28;20941;-67
2022/02/17 06:09:45;;;;;;;26.47;9.47;;;9.30;99.90;;;;;;4992685;28;20208;-68
2022/02/17 06:12:11;;;;;;;19.80;9.47;;;9.10;99.90;;;;;;4993518;28;20181;-67
2022/02/17 06:14:37;;;;;;;16.17;8.47;;;9.00;99.90;;;;;;4993105;28;20192;-68
2022/02/17 06:17:03;;;;;;;20.03;9.03;;;8.90;99.90;;;;;;4993666;28;20576;-67
2022/02/17 06:19:29;;;;;;;17.20;9.47;;;8.90;99.90;;;;;;4993148;28;20180;-68
2022/02/17 06:21:54;;;;;;;11.30;9.63;;;9.00;99.90;;;;;;4993137;28;20335;-67
2022/02/17 06:24:20;;;;;;;14.70;10.03;;;9.10;99.90;;;;;;4993160;28;20184;-67
2022/02/17 06:26:46;;;;;;;21.57;9.43;;;9.00;99.90;;;;;;4993428;28;20173;-66
2022/02/17 06:29:12;;;;;;;15.87;9.40;;;9.00;99.90;;;;;;4993112;28;20276;-67
2022/02/17 06:31:37;;;;;;;27.30;9.87;;;9.00;99.90;;;;;;4993248;28;20180;-68
2022/02/17 06:34:03;;;;;;;23.83;10.33;;;9.00;99.90;;;;;;4992927;28;20601;-68
2022/02/17 06:36:28;;;;;;;12.50;8.10;;;9.10;99.90;;;;;;4993112;28;20264;-67
2022/02/17 06:38:54;;;;;;;16.00;10.57;;;9.20;99.90;;;;;;4992962;28;20600;-66
2022/02/17 06:41:21;;;;;;;13.60;8.83;;;9.30;99.90;;;;;;4992948;28;20185;-66
2022/02/17 06:43:48;;;;;;;13.57;8.97;;;9.40;99.90;;;;;;4992458;28;20211;-68
2022/02/17 06:46:14;;;;;;;19.00;9.13;;;9.40;99.90;;;;;;4993132;28;20191;-68
2022/02/17 06:48:40;;;;;;;18.87;8.23;;;9.50;99.90;;;;;;4992541;28;20201;-68
2022/02/17 06:51:06;;;;;;;17.77;9.00;;;9.50;99.90;;;;;;4993069;28;20176;-68
2022/02/17 06:53:31;;;;;;;17.00;8.77;;;9.60;99.90;;;;;;4992478;28;20184;-68
2022/02/17 06:55:57;;;;;;;26.60;10.33;;;9.60;99.90;;;;;;4992925;28;20193;-67
2022/02/17 06:58:23;;;;;;;14.10;10.10;;;9.60;99.90;;;;;;4992971;28;20200;-66
2022/02/17 07:00:49;;;;;;;23.17;9.80;;;9.60;99.90;;;;;;4991775;28;20180;-67
2022/02/17 07:03:14;;;;;;;16.87;9.70;;;9.60;99.90;;;;;;4992673;28;20185;-68
2022/02/17 07:05:40;;;;;;;15.03;9.47;;;9.60;99.90;;;;;;4992311;28;20188;-68
2022/02/17 07:08:06;;;;;;;23.13;11.13;;;9.60;99.90;;;;;;4992320;28;20219;-68
2022/02/17 07:13:17;;;;;;;12.20;9.30;;;9.70;99.90;;;;;;4992195;28;20307;-67
2022/02/17 07:15:44;;;;;;;25.50;9.87;;;9.80;99.90;;;;;;4992676;28;20646;-68
2022/02/17 07:18:10;;;;;;;16.53;9.93;;;9.70;99.90;;;;;;4992216;28;20373;-68
2022/02/17 07:20:37;;;;;;;14.97;8.90;;;9.70;99.90;;;;;;4992542;28;20184;-68
2022/02/17 07:23:03;;;;;;;19.43;8.87;;;9.80;99.90;;;;;;4992055;28;20247;-69
2022/02/17 07:25:29;;;;;;;16.07;8.40;;;9.80;99.90;;;;;;4990917;28;20180;-68
2022/02/17 07:27:54;;;;;;;17.10;8.90;;;9.80;99.90;;;;;;4991840;28;20284;-68
2022/02/17 07:30:20;;;;;;;9.93;9.10;;;9.80;99.90;;;;;;4992073;28;20204;-68
2022/02/17 07:32:46;;;;;;;19.53;9.67;;;9.90;99.90;;;;;;4992969;28;20564;-67
2022/02/17 07:35:12;;;;;;;14.90;9.03;;;9.90;99.90;;;;;;4992469;28;20184;-67
2022/02/17 07:37:38;;;;;;;20.27;9.00;;;9.90;99.90;;;;;;4991958;28;20638;-68
2022/02/17 07:40:06;;;;;;;19.97;9.03;;;9.90;99.90;;;;;;4992180;28;20787;-68
2022/02/17 07:42:32;;;;;;;19.97;9.13;;;9.90;99.90;;;;;;4991767;28;20215;-68
2022/02/17 07:44:59;;;;;;;17.83;9.83;;;9.90;99.90;;;;;;4992280;28;20204;-68
2022/02/17 07:47:26;;;;;;;17.00;8.17;;;9.80;99.90;;;;;;4992949;28;20291;-68
2022/02/17 07:49:54;;;;;;;8.93;7.87;;;10.00;99.90;;;;;;4992928;28;20623;-68
2022/02/17 07:52:21;;;;;;;24.77;10.33;;;10.30;99.90;;;;;;4992541;28;20612;-68
2022/02/17 07:54:46;;;;;;;14.37;8.70;;;10.40;99.90;;;;;;4992909;28;20227;-67
2022/02/17 07:57:12;;;;;;;12.50;8.20;;;10.30;99.90;;;;;;4992691;28;20193;-67
2022/02/17 07:59:38;;;;;;;18.73;8.67;;;10.20;99.90;;;;;;4992173;28;20184;-68
2022/02/17 08:02:04;;;;;;;13.60;7.90;;;10.20;99.90;;;;;;4991713;28;20578;-68
2022/02/17 08:04:30;;;;;;;29.90;9.67;;;10.30;99.90;;;;;;4991998;28;20191;-68
2022/02/17 08:06:56;;;;;;;12.67;7.90;;;10.30;99.90;;;;;;4991977;28;20176;-67
2022/02/17 08:09:22;;;;;;;15.90;8.37;;;10.30;99.90;;;;;;4991880;28;20296;-68
2022/02/17 08:11:48;;;;;;;16.40;9.47;;;10.30;99.90;;;;;;4991814;28;20176;-69
2022/02/17 08:14:13;;;;;;;18.07;8.50;;;10.50;99.90;;;;;;4991385;28;20169;-68
2022/02/17 08:16:39;;;;;;;15.20;7.97;;;10.90;99.90;;;;;;4990597;28;20308;-68
2022/02/17 08:19:07;;;;;;;19.33;8.70;;;11.20;99.90;;;;;;4990864;28;20291;-67
2022/02/17 08:21:33;;;;;;;18.00;8.03;;;11.40;99.90;;;;;;4991727;28;20702;-68
2022/02/17 08:23:58;;;;;;;16.53;7.73;;;11.30;99.90;;;;;;4991228;28;20554;-68
2022/02/17 08:26:24;;;;;;;21.87;9.00;;;11.20;99.90;;;;;;4992138;28;20235;-68
2022/02/17 08:28:55;;;;;;;18.60;8.80;;;11.10;99.90;;;;;;4990969;28;20631;-67
2022/02/17 08:31:21;;;;;;;18.70;9.40;;;10.70;99.90;;;;;;4990102;28;20183;-66
2022/02/17 08:33:47;;;;;;;16.90;9.23;;;10.10;99.90;;;;;;4990812;28;20177;-68
2022/02/17 08:36:12;;;;;;;17.50;8.43;;;9.80;99.90;;;;;;4991438;28;20169;-67
2022/02/17 08:38:38;;;;;;;16.20;8.87;;;9.70;99.90;;;;;;4991303;28;20565;-67
2022/02/17 08:41:06;;;;;;;17.50;8.70;;;9.70;99.90;;;;;;4991590;28;20181;-67
2022/02/17 08:43:32;;;;;;;20.37;9.90;;;9.70;99.90;;;;;;4990903;28;20246;-64
2022/02/17 08:45:58;;;;;;;15.90;8.43;;;9.80;99.90;;;;;;4991086;28;20282;-67
2022/02/17 08:48:23;;;;;;;11.60;8.30;;;10.00;99.90;;;;;;4983558;28;20223;-68
2022/02/17 08:50:49;;;;;;;18.63;7.80;;;10.60;99.90;;;;;;4990120;28;20859;-68
2022/02/17 08:53:15;;;;;;;17.60;8.47;;;11.20;99.90;;;;;;4990847;28;20295;-68
2022/02/17 08:55:40;;;;;;;18.07;9.07;;;11.60;99.90;;;;;;4990965;28;20263;-68
2022/02/17 08:58:06;;;;;;;25.93;8.33;;;11.60;99.90;;;;;;4991024;28;20199;-67
2022/02/17 09:00:32;;;;;;;22.57;7.60;;;11.50;99.90;;;;;;4989831;28;20212;-68
2022/02/17 09:02:57;;;;;;;24.13;8.40;;;11.50;99.90;;;;;;4995205;28;20196;-68
2022/02/17 09:05:24;;;;;;;17.07;7.50;;;11.60;99.90;;;;;;4995352;28;20260;-68
2022/02/17 09:07:50;;;;;;;19.03;8.53;;;11.80;99.90;;;;;;4994605;28;20204;-66
2022/02/17 09:10:16;;;;;;;17.30;8.67;;;12.10;99.90;;;;;;4994990;28;20209;-67
2022/02/17 09:12:42;;;;;;;14.20;8.63;;;11.80;99.90;;;;;;4994798;28;20200;-68
2022/02/17 09:15:09;;;;;;;12.40;7.70;;;11.70;99.90;;;;;;4993364;28;20185;-67
2022/02/17 09:17:35;;;;;;;16.77;7.53;;;11.70;99.90;;;;;;4993833;28;20288;-67
2022/02/17 09:20:01;;;;;;;12.87;8.07;;;12.00;99.90;;;;;;4994762;28;20169;-67
2022/02/17 09:22:26;;;;;;;16.10;9.43;;;11.90;99.90;;;;;;4994405;28;20673;-66
2022/02/17 09:24:52;;;;;;;26.97;8.67;;;11.60;99.90;;;;;;4994752;28;20553;-65
2022/02/17 09:27:17;;;;;;;18.67;9.57;;;11.40;99.90;;;;;;4994637;28;20221;-66
2022/02/17 09:29:43;;;;;;;9.93;6.87;;;11.70;99.90;;;;;;4993535;28;20284;-66
2022/02/17 09:32:10;;;;;;;15.63;7.97;;;11.50;99.90;;;;;;4994522;28;20247;-66
2022/02/17 09:34:37;;;;;;;10.57;7.70;;;11.30;99.90;;;;;;4993068;28;20672;-66
2022/02/17 09:37:03;;;;;;;14.40;8.27;;;11.20;99.90;;;;;;4993014;28;20173;-67
2022/02/17 09:39:29;;;;;;;12.70;7.33;;;11.20;99.90;;;;;;4994263;28;20173;-66
2022/02/17 09:41:55;;;;;;;15.70;7.83;;;11.70;99.90;;;;;;4994156;28;20173;-66
2022/02/17 09:44:22;;;;;;;10.63;7.97;;;12.20;99.90;;;;;;4994259;28;20534;-66
2022/02/17 09:46:48;;;;;;;15.73;8.13;;;12.10;99.90;;;;;;4994316;28;20181;-66
2022/02/17 09:49:16;;;;;;;11.60;7.60;;;11.90;99.90;;;;;;4994103;28;20263;-66
2022/02/17 09:51:43;;;;;;;15.47;7.50;;;11.70;99.90;;;;;;4994116;28;20179;-67
2022/02/17 09:54:09;;;;;;;15.63;7.30;;;11.50;99.90;;;;;;4993914;28;20219;-66
2022/02/17 09:56:40;;;;;;;12.67;7.40;;;11.40;99.90;;;;;;4994132;28;20181;-66
2022/02/17 09:59:06;;;;;;;12.93;7.93;;;11.40;99.90;;;;;;4994176;28;20247;-66
2022/02/17 10:01:32;;;;;;;17.67;7.93;;;11.50;99.90;;;;;;4993774;28;20176;-67
2022/02/17 10:04:15;;;;;;;9.30;7.40;;;11.90;99.90;;;;;;4993454;28;20639;-66
2022/02/17 10:06:49;;;;;;;8.77;7.03;;;12.20;99.90;;;;;;4993819;28;20717;-65
2022/02/17 10:09:16;;;;;;;7.40;6.70;;;12.40;99.90;;;;;;4994004;28;20217;-66
2022/02/17 10:11:43;;;;;;;10.90;6.83;;;12.80;99.90;;;;;;4993332;28;20180;-67
2022/02/17 10:14:14;;;;;;;17.37;9.13;;;12.80;99.90;;;;;;4993598;28;20663;-66
2022/02/17 10:17:03;;;;;;;12.60;9.23;;;12.70;99.90;;;;;;4993493;28;20184;-66
2022/02/17 10:19:47;;;;;;;10.30;6.83;;;13.00;99.90;;;;;;4993536;28;20215;-66
2022/02/17 10:22:19;;;;;;;9.70;6.80;;;13.30;99.90;;;;;;4993209;28;20642;-66
2022/02/17 10:24:50;;;;;;;8.70;6.33;;;13.10;99.90;;;;;;4993452;28;20181;-66
2022/02/17 10:27:16;;;;;;;13.73;7.73;;;13.00;99.90;;;;;;4993767;28;20722;-66
2022/02/17 10:30:13;;;;;;;11.70;7.67;;;12.90;99.90;;;;;;4992099;28;20305;-66
2022/02/17 10:32:56;;;;;;;8.93;6.53;;;12.90;99.90;;;;;;4993179;28;20593;-66
2022/02/17 10:35:23;;;;;;;7.47;6.43;;;12.80;99.90;;;;;;4993142;28;20180;-66
2022/02/17 10:37:49;;;;;;;7.63;6.60;;;13.00;99.90;;;;;;4993119;28;20275;-66
2022/02/17 10:40:29;;;;;;;12.60;7.10;;;13.10;99.90;;;;;;4993267;28;20197;-66
2022/02/17 10:42:59;;;;;;;9.83;6.77;;;13.40;99.90;;;;;;4993058;28;20176;-66
2022/02/17 10:45:25;;;;;;;7.90;6.23;;;13.70;99.90;;;;;;4993381;28;20165;-66
2022/02/17 10:47:50;;;;;;;8.73;6.90;;;13.70;99.90;;;;;;4993238;28;20192;-66
2022/02/17 10:50:20;;;;;;;8.53;6.20;;;13.70;99.90;;;;;;4993059;28;20267;-66
2022/02/17 10:52:46;;;;;;;6.70;5.93;;;13.70;99.90;;;;;;4992870;28;20188;-66
2022/02/17 10:55:17;;;;;;;10.67;6.30;;;13.60;99.90;;;;;;4993068;28;20256;-66
2022/02/17 10:57:43;;;;;;;12.70;6.50;;;13.50;99.90;;;;;;4993093;28;20267;-66
2022/02/17 11:00:12;;;;;;;7.00;6.30;;;13.60;99.90;;;;;;4992955;28;20173;-66
2022/02/17 11:02:39;;;;;;;6.37;5.77;;;13.60;99.90;;;;;;4992792;28;20181;-66
2022/02/17 11:05:09;;;;;;;6.73;5.67;;;14.00;99.90;;;;;;4992937;28;20195;-66
2022/02/17 11:07:43;;;;;;;7.97;5.87;;;14.30;99.90;;;;;;4992622;28;20225;-66
2022/02/17 11:10:10;;;;;;;7.23;5.83;;;14.40;99.90;;;;;;4992682;28;20208;-67
2022/02/17 11:12:38;;;;;;;10.70;6.17;;;14.30;99.90;;;;;;4991843;28;20247;-66
2022/02/17 11:15:05;;;;;;;8.70;6.10;;;13.70;99.90;;;;;;4991572;28;20204;-66
2022/02/17 11:17:34;;;;;;;12.10;5.53;;;13.80;99.90;;;;;;4992599;28;20188;-66
2022/02/17 11:20:16;;;;;;;8.83;6.13;;;13.50;99.90;;;;;;4992397;28;20184;-66
2022/02/17 11:22:42;;;;;;;9.70;6.10;;;13.10;99.90;;;;;;4992039;28;20283;-66
2022/02/17 11:25:10;;;;;;;6.10;5.70;;;13.30;99.90;;;;;;4992170;28;20215;-66
2022/02/17 11:27:57;;;;;;;7.70;6.30;;;13.70;99.90;;;;;;4989704;28;20228;-67
2022/02/17 11:30:27;;;;;;;6.60;5.50;;;13.80;99.90;;;;;;4992006;28;20283;-67
2022/02/17 11:33:32;;;;;;;7.23;5.97;;;13.90;99.90;;;;;;4991924;28;20697;-67
2022/02/17 11:36:19;;;;;;;9.73;7.47;;;14.10;99.90;;;;;;4991851;28;20176;-66
2022/02/17 11:38:52;;;;;;;7.77;6.27;;;13.70;99.90;;;;;;4992140;28;20697;-66
2022/02/17 11:41:31;;;;;;;8.00;6.87;;;13.30;99.90;;;;;;4990742;28;20185;-66
2022/02/17 11:44:20;;;;;;;8.53;5.67;;;13.10;99.90;;;;;;4990131;28;20176;-66
2022/02/17 11:46:53;;;;;;;12.67;6.17;;;13.20;99.90;;;;;;4991926;28;20180;-66
2022/02/17 11:49:43;;;;;;;8.63;6.13;;;12.90;99.90;;;;;;4991534;28;20693;-66
2022/02/17 11:52:09;;;;;;;13.27;6.93;;;12.30;99.90;;;;;;4991140;28;20196;-66
2022/02/17 11:54:35;;;;;;;6.87;5.83;;;12.00;99.90;;;;;;4991393;28;20243;-66
2022/02/17 11:57:01;;;;;;;8.80;5.90;;;11.70;99.90;;;;;;4991810;28;20560;-66
2022/02/17 11:59:29;;;;;;;17.00;8.70;;;11.70;99.90;;;;;;4991849;28;20267;-66
2022/02/17 12:02:03;;;;;;;9.27;5.70;;;11.90;99.90;;;;;;4990299;28;20216;-67
2022/02/17 12:04:30;;;;;;;6.43;5.23;;;11.90;99.90;;;;;;4990241;28;20191;-65
2022/02/17 12:07:01;;;;;;;9.50;5.83;;;12.30;99.90;;;;;;4991797;28;20173;-67
2022/02/17 12:09:37;;;;;;;15.40;5.77;;;12.60;99.90;;;;;;4991550;28;20210;-66
2022/02/17 12:12:12;;;;;;;10.67;6.13;;;12.90;99.90;;;;;;4991804;28;20175;-66
2022/02/17 12:14:44;;;;;;;6.40;5.73;;;13.40;99.90;;;;;;4990324;28;20188;-66
2022/02/17 12:17:10;;;;;;;5.90;5.30;;;13.60;99.90;;;;;;4992096;28;20193;-66
2022/02/17 12:19:35;;;;;;;6.47;5.17;;;13.80;99.90;;;;;;4991773;28;20193;-65
2022/02/17 12:22:10;;;;;;;5.53;5.10;;;14.10;99.90;;;;;;4990937;28;20207;-66
2022/02/17 12:24:38;;;;;;;8.87;5.80;;;14.30;99.90;;;;;;4991042;28;20543;-66
2022/02/17 12:27:05;;;;;;;9.17;5.67;;;13.60;99.90;;;;;;4991244;28;20185;-66
2022/02/17 12:29:33;;;;;;;8.17;5.30;;;13.00;99.90;;;;;;4989983;28;20204;-66
2022/02/17 12:32:05;;;;;;;12.50;6.03;;;12.40;99.90;;;;;;4991373;28;20267;-66
2022/02/17 12:34:32;;;;;;;7.33;6.30;;;12.00;99.90;;;;;;4991629;28;20181;-65
2022/02/17 12:36:58;;;;;;;6.50;6.00;;;11.80;99.90;;;;;;4995391;28;20173;-66
2022/02/17 12:39:30;;;;;;;6.53;6.03;;;11.80;99.90;;;;;;4994793;28;20181;-66
2022/02/17 12:42:02;;;;;;;7.23;6.47;;;11.90;99.90;;;;;;4994592;28;20181;-66
2022/02/17 12:44:35;;;;;;;11.33;6.03;;;12.00;99.90;;;;;;4994149;28;20209;-66
2022/02/17 12:47:03;;;;;;;10.03;7.13;;;11.90;99.90;;;;;;4994704;28;20211;-66
2022/02/17 12:49:30;;;;;;;12.67;6.40;;;11.80;99.90;;;;;;4994806;28;20211;-66